sensor_id;sensor_type;location;lat;lon;timestamp;pressure;altitude;pressure_sealevel;temperature;humidity
41264;BME280;26998;48.714;9.414;2023-06-05T00:01:09;98987.34;;;13.56;100.00
41264;BME280;26998;48.714;9.414;2023-06-05T00:03:36;98990.66;;;13.51;100.00
41264;BME280;26998;48.714;9.414;2023-06-05T00:06:05;98989.91;;;13.37;100.00
41264;BME280;26998;48.714;9.414;2023-06-05T00:08:32;98993.63;;;13.30;100.00
41264;BME280;26998;48.714;9.414;2023-06-05T00:10:59;98999.84;;;13.17;100.00
41264;BME280;26998;48.714;9.414;2023-06-05T00:13:26;99024.03;;;13.10;100.00
41264;BME280;26998;48.714;9.414;2023-06-05T00:15:53;99038.09;;;13.06;100.00
41264;BME280;26998;48.714;9.414;2023-06-05T00:18:20;99037.03;;;13.07;100.00
41264;BME280;26998;48.714;9.414;2023-06-05T00:20:46;99051.91;;;13.09;100.00
41264;BME280;26998;48.714;9.414;2023-06-05T00:23:16;99058.72;;;13.12;100.00
41264;BME280;26998;48.714;9.414;2023-06-05T00:25:42;99065.72;;;13.13;100.00
41264;BME280;26998;48.714;9.414;2023-06-05T00:28:09;99052.94;;;13.08;100.00
41264;BME280;26998;48.714;9.414;2023-06-05T00:30:36;99060.13;;;13.08;100.00
41264;BME280;26998;48.714;9.414;2023-06-05T00:33:03;99069.69;;;12.84;100.00
41264;BME280;26998;48.714;9.414;2023-06-05T00:35:29;99085.75;;;12.64;100.00
41264;BME280;26998;48.714;9.414;2023-06-05T00:37:56;99099.16;;;12.57;100.00
41264;BME280;26998;48.714;9.414;2023-06-05T00:40:23;99105.75;;;12.41;100.00
41264;BME280;26998;48.714;9.414;2023-06-05T00:42:50;99106.56;;;12.42;100.00
41264;BME280;26998;48.714;9.414;2023-06-05T00:45:17;99117.69;;;12.45;100.00
41264;BME280;26998;48.714;9.414;2023-06-05T00:47:43;99105.97;;;12.46;100.00
41264;BME280;26998;48.714;9.414;2023-06-05T00:50:13;99128.16;;;12.27;100.00
41264;BME280;26998;48.714;9.414;2023-06-05T00:52:41;99140.50;;;12.15;100.00
41264;BME280;26998;48.714;9.414;2023-06-05T00:55:10;99141.97;;;12.17;100.00
41264;BME280;26998;48.714;9.414;2023-06-05T00:57:38;99135.34;;;12.13;100.00
41264;BME280;26998;48.714;9.414;2023-06-05T01:00:08;99146.25;;;12.12;100.00
41264;BME280;26998;48.714;9.414;2023-06-05T01:02:35;99148.53;;;12.08;100.00
41264;BME280;26998;48.714;9.414;2023-06-05T01:05:02;99162.25;;;11.92;100.00
41264;BME280;26998;48.714;9.414;2023-06-05T01:07:31;99161.22;;;11.93;100.00
41264;BME280;26998;48.714;9.414;2023-06-05T01:09:57;99154.03;;;11.93;100.00
41264;BME280;26998;48.714;9.414;2023-06-05T01:15:23;99106.03;;;11.92;100.00
41264;BME280;26998;48.714;9.414;2023-06-05T01:17:50;99107.47;;;11.94;100.00
41264;BME280;26998;48.714;9.414;2023-06-05T01:20:17;99107.88;;;11.91;100.00
41264;BME280;26998;48.714;9.414;2023-06-05T01:22:50;99108.69;;;11.92;100.00
41264;BME280;26998;48.714;9.414;2023-06-05T01:25:17;99110.13;;;11.88;100.00
41264;BME280;26998;48.714;9.414;2023-06-05T01:33:26;99158.13;;;11.89;100.00
41264;BME280;26998;48.714;9.414;2023-06-05T01:35:56;99177.03;;;11.81;100.00
41264;BME280;26998;48.714;9.414;2023-06-05T01:38:23;99182.38;;;11.81;100.00
41264;BME280;26998;48.714;9.414;2023-06-05T01:40:51;99177.59;;;11.76;100.00
41264;BME280;26998;48.714;9.414;2023-06-05T01:43:18;99175.75;;;11.77;100.00
41264;BME280;26998;48.714;9.414;2023-06-05T01:45:45;99164.59;;;11.73;100.00
41264;BME280;26998;48.714;9.414;2023-06-05T01:48:12;99146.69;;;11.74;100.00
41264;BME280;26998;48.714;9.414;2023-06-05T01:50:40;99147.72;;;11.73;100.00
41264;BME280;26998;48.714;9.414;2023-06-05T01:53:09;99136.84;;;11.74;100.00
41264;BME280;26998;48.714;9.414;2023-06-05T01:55:36;99141.97;;;11.76;100.00
41264;BME280;26998;48.714;9.414;2023-06-05T01:58:02;99164.59;;;11.73;100.00
41264;BME280;26998;48.714;9.414;2023-06-05T02:00:29;99174.47;;;11.66;100.00
41264;BME280;26998;48.714;9.414;2023-06-05T02:02:55;99192.56;;;11.64;100.00
41264;BME280;26998;48.714;9.414;2023-06-05T02:05:23;99192.53;;;11.57;100.00
41264;BME280;26998;48.714;9.414;2023-06-05T02:07:50;99188.78;;;11.52;100.00
41264;BME280;26998;48.714;9.414;2023-06-05T02:10:17;99183.69;;;11.57;100.00
41264;BME280;26998;48.714;9.414;2023-06-05T02:12:44;99189.22;;;11.55;100.00
41264;BME280;26998;48.714;9.414;2023-06-05T02:15:11;99191.72;;;11.57;100.00
41264;BME280;26998;48.714;9.414;2023-06-05T02:17:38;99222.75;;;11.51;100.00
41264;BME280;26998;48.714;9.414;2023-06-05T02:20:06;99223.97;;;11.49;100.00
41264;BME280;26998;48.714;9.414;2023-06-05T02:22:32;99222.56;;;11.53;100.00
41264;BME280;26998;48.714;9.414;2023-06-05T02:24:59;99224.19;;;11.47;100.00
41264;BME280;26998;48.714;9.414;2023-06-05T02:27:26;99223.75;;;11.44;100.00
41264;BME280;26998;48.714;9.414;2023-06-05T02:29:53;99227.38;;;11.36;100.00
41264;BME280;26998;48.714;9.414;2023-06-05T02:32:20;99223.81;;;11.29;100.00
41264;BME280;26998;48.714;9.414;2023-06-05T02:34:47;99236.78;;;11.25;100.00
41264;BME280;26998;48.714;9.414;2023-06-05T02:37:14;99223.94;;;11.21;100.00
41264;BME280;26998;48.714;9.414;2023-06-05T02:39:40;99231.41;;;11.25;100.00
41264;BME280;26998;48.714;9.414;2023-06-05T02:42:07;99226.88;;;11.26;100.00
41264;BME280;26998;48.714;9.414;2023-06-05T02:44:34;99231.84;;;11.29;100.00
41264;BME280;26998;48.714;9.414;2023-06-05T02:47:01;99226.88;;;11.26;100.00
41264;BME280;26998;48.714;9.414;2023-06-05T02:49:28;99235.69;;;11.20;100.00
41264;BME280;26998;48.714;9.414;2023-06-05T02:51:54;99246.50;;;11.12;100.00
41264;BME280;26998;48.714;9.414;2023-06-05T02:54:21;99258.50;;;11.16;100.00
41264;BME280;26998;48.714;9.414;2023-06-05T02:56:47;99253.16;;;11.16;100.00
41264;BME280;26998;48.714;9.414;2023-06-05T02:59:14;99250.22;;;11.10;100.00
41264;BME280;26998;48.714;9.414;2023-06-05T03:01:42;99253.47;;;11.06;100.00
41264;BME280;26998;48.714;9.414;2023-06-05T03:04:09;99264.94;;;11.00;100.00
41264;BME280;26998;48.714;9.414;2023-06-05T03:06:35;99265.06;;;10.92;100.00
41264;BME280;26998;48.714;9.414;2023-06-05T03:09:02;99267.28;;;10.88;100.00
41264;BME280;26998;48.714;9.414;2023-06-05T03:11:29;99269.25;;;10.79;100.00
41264;BME280;26998;48.714;9.414;2023-06-05T03:13:56;99295.16;;;10.79;100.00
41264;BME280;26998;48.714;9.414;2023-06-05T03:16:23;99302.53;;;10.77;100.00
41264;BME280;26998;48.714;9.414;2023-06-05T03:18:49;99305.19;;;10.77;100.00
41264;BME280;26998;48.714;9.414;2023-06-05T03:21:16;99306.28;;;10.82;100.00
41264;BME280;26998;48.714;9.414;2023-06-05T03:23:44;99324.34;;;10.80;100.00
41264;BME280;26998;48.714;9.414;2023-06-05T03:26:11;99334.59;;;10.77;100.00
41264;BME280;26998;48.714;9.414;2023-06-05T03:28:38;99330.94;;;10.78;100.00
41264;BME280;26998;48.714;9.414;2023-06-05T03:31:04;99339.56;;;10.80;100.00
41264;BME280;26998;48.714;9.414;2023-06-05T03:33:31;99344.09;;;10.79;100.00
41264;BME280;26998;48.714;9.414;2023-06-05T03:35:58;99349.06;;;10.82;100.00
41264;BME280;26998;48.714;9.414;2023-06-05T03:38:24;99364.66;;;10.79;100.00
41264;BME280;26998;48.714;9.414;2023-06-05T03:40:51;99373.31;;;10.81;100.00
41264;BME280;26998;48.714;9.414;2023-06-05T03:43:18;99373.78;;;10.84;100.00
41264;BME280;26998;48.714;9.414;2023-06-05T03:45:44;99397.00;;;10.84;100.00
41264;BME280;26998;48.714;9.414;2023-06-05T03:48:11;99404.66;;;10.87;100.00
41264;BME280;26998;48.714;9.414;2023-06-05T03:50:37;99418.50;;;10.91;100.00
41264;BME280;26998;48.714;9.414;2023-06-05T03:53:04;99373.50;;;10.94;100.00
41264;BME280;26998;48.714;9.414;2023-06-05T03:55:32;99356.03;;;10.98;100.00
41264;BME280;26998;48.714;9.414;2023-06-05T03:57:59;99333.63;;;10.99;100.00
41264;BME280;26998;48.714;9.414;2023-06-05T04:00:25;99326.19;;;10.95;100.00
41264;BME280;26998;48.714;9.414;2023-06-05T04:02:52;99324.91;;;10.91;100.00
41264;BME280;26998;48.714;9.414;2023-06-05T04:05:19;99327.75;;;10.89;100.00
41264;BME280;26998;48.714;9.414;2023-06-05T04:07:46;99327.38;;;10.92;100.00
41264;BME280;26998;48.714;9.414;2023-06-05T04:10:13;99336.16;;;10.86;100.00
41264;BME280;26998;48.714;9.414;2023-06-05T04:12:39;99359.03;;;10.89;100.00
41264;BME280;26998;48.714;9.414;2023-06-05T04:15:07;99368.31;;;10.93;100.00
41264;BME280;26998;48.714;9.414;2023-06-05T04:17:34;99395.34;;;10.98;100.00
41264;BME280;26998;48.714;9.414;2023-06-05T04:20:01;99396.00;;;11.00;100.00
41264;BME280;26998;48.714;9.414;2023-06-05T04:22:28;99395.44;;;10.90;100.00
41264;BME280;26998;48.714;9.414;2023-06-05T04:24:54;99418.59;;;10.82;100.00
41264;BME280;26998;48.714;9.414;2023-06-05T04:27:21;99431.38;;;10.87;100.00
41264;BME280;26998;48.714;9.414;2023-06-05T04:29:48;99425.19;;;11.16;100.00
41264;BME280;26998;48.714;9.414;2023-06-05T04:32:16;99351.56;;;12.13;100.00
41264;BME280;26998;48.714;9.414;2023-06-05T04:34:43;99217.03;;;13.05;100.00
41264;BME280;26998;48.714;9.414;2023-06-05T04:37:10;99091.81;;;13.64;100.00
41264;BME280;26998;48.714;9.414;2023-06-05T04:39:37;99050.81;;;13.89;100.00
41264;BME280;26998;48.714;9.414;2023-06-05T04:42:04;98996.19;;;15.01;100.00
41264;BME280;26998;48.714;9.414;2023-06-05T04:44:40;98901.19;;;16.03;100.00
41264;BME280;26998;48.714;9.414;2023-06-05T04:47:07;98870.03;;;16.07;100.00
41264;BME280;26998;48.714;9.414;2023-06-05T04:49:35;98877.88;;;16.09;100.00
41264;BME280;26998;48.714;9.414;2023-06-05T04:52:01;98880.94;;;16.12;100.00
41264;BME280;26998;48.714;9.414;2023-06-05T04:54:28;98872.63;;;16.02;100.00
41264;BME280;26998;48.714;9.414;2023-06-05T04:56:55;98875.53;;;15.89;100.00
41264;BME280;26998;48.714;9.414;2023-06-05T04:59:22;98877.03;;;15.85;100.00
41264;BME280;26998;48.714;9.414;2023-06-05T05:01:49;98872.16;;;16.05;100.00
41264;BME280;26998;48.714;9.414;2023-06-05T05:04:19;98850.38;;;16.94;100.00
41264;BME280;26998;48.714;9.414;2023-06-05T05:06:46;98859.94;;;16.61;100.00
41264;BME280;26998;48.714;9.414;2023-06-05T05:09:13;98857.72;;;16.47;100.00
41264;BME280;26998;48.714;9.414;2023-06-05T05:11:39;98842.78;;;17.20;100.00
41264;BME280;26998;48.714;9.414;2023-06-05T05:14:06;98835.00;;;17.69;100.00
41264;BME280;26998;48.714;9.414;2023-06-05T05:16:33;98829.13;;;17.26;100.00
41264;BME280;26998;48.714;9.414;2023-06-05T05:19:02;98862.50;;;15.98;100.00
41264;BME280;26998;48.714;9.414;2023-06-05T05:21:44;98857.16;;;17.37;100.00
41264;BME280;26998;48.714;9.414;2023-06-05T05:24:11;98830.84;;;18.89;96.12
41264;BME280;26998;48.714;9.414;2023-06-05T05:26:38;98835.72;;;18.49;98.95
41264;BME280;26998;48.714;9.414;2023-06-05T05:29:05;98823.81;;;19.15;95.97
41264;BME280;26998;48.714;9.414;2023-06-05T05:31:33;98826.38;;;20.19;84.99
41264;BME280;26998;48.714;9.414;2023-06-05T05:34:00;98825.75;;;20.06;89.88
41264;BME280;26998;48.714;9.414;2023-06-05T05:36:27;98825.97;;;20.95;81.06
41264;BME280;26998;48.714;9.414;2023-06-05T05:38:54;98829.88;;;21.35;79.48
41264;BME280;26998;48.714;9.414;2023-06-05T05:41:21;98831.63;;;19.12;91.60
41264;BME280;26998;48.714;9.414;2023-06-05T05:43:48;98835.59;;;20.18;87.70
41264;BME280;26998;48.714;9.414;2023-06-05T05:46:15;98830.59;;;19.13;93.41
41264;BME280;26998;48.714;9.414;2023-06-05T05:48:42;98822.31;;;18.59;96.70
41264;BME280;26998;48.714;9.414;2023-06-05T05:51:09;98826.03;;;19.46;93.97
41264;BME280;26998;48.714;9.414;2023-06-05T05:53:36;98827.63;;;19.42;91.10
41264;BME280;26998;48.714;9.414;2023-06-05T05:56:03;98831.59;;;19.07;90.65
41264;BME280;26998;48.714;9.414;2023-06-05T05:58:31;98839.91;;;18.39;97.83
41264;BME280;26998;48.714;9.414;2023-06-05T06:00:59;98835.94;;;18.86;95.01
41264;BME280;26998;48.714;9.414;2023-06-05T06:03:26;98836.09;;;20.52;86.87
41264;BME280;26998;48.714;9.414;2023-06-05T06:05:56;98834.19;;;20.52;82.60
41264;BME280;26998;48.714;9.414;2023-06-05T06:08:22;98839.19;;;21.80;73.56
41264;BME280;26998;48.714;9.414;2023-06-05T06:10:49;98833.66;;;21.18;78.16
41264;BME280;26998;48.714;9.414;2023-06-05T06:13:16;98832.56;;;21.09;74.84
41264;BME280;26998;48.714;9.414;2023-06-05T06:15:42;98838.59;;;21.37;72.33
41264;BME280;26998;48.714;9.414;2023-06-05T06:18:09;98837.81;;;23.19;59.07
41264;BME280;26998;48.714;9.414;2023-06-05T06:20:36;98841.84;;;21.29;69.18
41264;BME280;26998;48.714;9.414;2023-06-05T06:23:03;98841.63;;;21.40;73.57
41264;BME280;26998;48.714;9.414;2023-06-05T06:25:31;98829.00;;;20.51;82.40
41264;BME280;26998;48.714;9.414;2023-06-05T06:28:02;98831.28;;;20.22;83.34
41264;BME280;26998;48.714;9.414;2023-06-05T06:30:29;98840.25;;;21.43;75.09
41264;BME280;26998;48.714;9.414;2023-06-05T06:32:58;98837.84;;;21.82;68.00
41264;BME280;26998;48.714;9.414;2023-06-05T06:35:25;98834.72;;;21.07;74.52
41264;BME280;26998;48.714;9.414;2023-06-05T06:37:55;98825.63;;;20.28;82.73
41264;BME280;26998;48.714;9.414;2023-06-05T06:40:22;98829.13;;;21.60;73.78
41264;BME280;26998;48.714;9.414;2023-06-05T06:42:49;98834.03;;;22.34;68.14
41264;BME280;26998;48.714;9.414;2023-06-05T06:45:16;98831.84;;;22.01;68.08
41264;BME280;26998;48.714;9.414;2023-06-05T06:47:43;98843.00;;;22.35;68.61
41264;BME280;26998;48.714;9.414;2023-06-05T06:50:24;98836.69;;;22.55;67.07
41264;BME280;26998;48.714;9.414;2023-06-05T06:52:51;98835.94;;;21.67;70.37
41264;BME280;26998;48.714;9.414;2023-06-05T06:55:18;98833.22;;;22.24;69.76
41264;BME280;26998;48.714;9.414;2023-06-05T06:57:45;98826.66;;;22.40;66.08
41264;BME280;26998;48.714;9.414;2023-06-05T07:00:15;98833.69;;;22.56;65.49
41264;BME280;26998;48.714;9.414;2023-06-05T07:02:41;98828.06;;;20.77;79.67
41264;BME280;26998;48.714;9.414;2023-06-05T07:05:08;98831.53;;;20.20;84.91
41264;BME280;26998;48.714;9.414;2023-06-05T07:07:35;98823.16;;;20.27;86.19
41264;BME280;26998;48.714;9.414;2023-06-05T07:10:02;98822.69;;;20.88;82.46
41264;BME280;26998;48.714;9.414;2023-06-05T07:12:28;98824.97;;;21.21;77.63
41264;BME280;26998;48.714;9.414;2023-06-05T07:14:55;98830.19;;;21.49;74.99
41264;BME280;26998;48.714;9.414;2023-06-05T07:17:21;98826.16;;;22.28;73.13
41264;BME280;26998;48.714;9.414;2023-06-05T07:19:49;98830.47;;;22.13;73.31
41264;BME280;26998;48.714;9.414;2023-06-05T07:22:15;98818.41;;;22.66;68.92
41264;BME280;26998;48.714;9.414;2023-06-05T07:24:42;98826.16;;;21.72;73.37
41264;BME280;26998;48.714;9.414;2023-06-05T07:27:09;98818.88;;;20.89;80.15
41264;BME280;26998;48.714;9.414;2023-06-05T07:29:35;98804.69;;;20.66;82.40
41264;BME280;26998;48.714;9.414;2023-06-05T07:32:02;98805.09;;;21.11;81.57
41264;BME280;26998;48.714;9.414;2023-06-05T07:34:29;98803.97;;;20.91;82.93
41264;BME280;26998;48.714;9.414;2023-06-05T07:36:56;98808.59;;;20.91;85.41
41264;BME280;26998;48.714;9.414;2023-06-05T07:39:23;98805.84;;;19.91;90.51
41264;BME280;26998;48.714;9.414;2023-06-05T07:41:50;98800.16;;;20.40;87.71
41264;BME280;26998;48.714;9.414;2023-06-05T07:44:19;98797.38;;;19.87;92.61
41264;BME280;26998;48.714;9.414;2023-06-05T07:46:49;98789.06;;;19.94;92.72
41264;BME280;26998;48.714;9.414;2023-06-05T07:49:17;98791.75;;;20.36;91.08
41264;BME280;26998;48.714;9.414;2023-06-05T07:51:45;98788.41;;;20.76;88.77
41264;BME280;26998;48.714;9.414;2023-06-05T07:54:14;98789.53;;;20.86;89.19
41264;BME280;26998;48.714;9.414;2023-06-05T07:56:41;98786.69;;;21.38;86.34
41264;BME280;26998;48.714;9.414;2023-06-05T07:59:08;98790.78;;;21.82;84.23
41264;BME280;26998;48.714;9.414;2023-06-05T08:01:36;98793.50;;;21.51;85.80
41264;BME280;26998;48.714;9.414;2023-06-05T08:04:03;98781.25;;;21.74;87.48
41264;BME280;26998;48.714;9.414;2023-06-05T08:06:31;98786.16;;;21.77;87.96
41264;BME280;26998;48.714;9.414;2023-06-05T08:09:01;98784.75;;;22.31;86.27
41264;BME280;26998;48.714;9.414;2023-06-05T08:11:27;98780.72;;;21.77;87.78
41264;BME280;26998;48.714;9.414;2023-06-05T08:13:54;98771.75;;;22.82;85.00
41264;BME280;26998;48.714;9.414;2023-06-05T08:16:21;98778.97;;;22.43;85.68
41264;BME280;26998;48.714;9.414;2023-06-05T08:18:48;98783.50;;;22.73;84.06
41264;BME280;26998;48.714;9.414;2023-06-05T08:21:15;98777.97;;;22.93;79.78
41264;BME280;26998;48.714;9.414;2023-06-05T08:23:42;98777.69;;;23.39;78.83
41264;BME280;26998;48.714;9.414;2023-06-05T08:26:08;98771.00;;;22.67;83.15
41264;BME280;26998;48.714;9.414;2023-06-05T08:28:35;98764.88;;;23.00;84.02
41264;BME280;26998;48.714;9.414;2023-06-05T08:31:02;98763.66;;;23.17;81.98
41264;BME280;26998;48.714;9.414;2023-06-05T08:33:28;98759.47;;;22.90;83.25
41264;BME280;26998;48.714;9.414;2023-06-05T08:35:55;98761.03;;;23.46;81.02
41264;BME280;26998;48.714;9.414;2023-06-05T08:38:22;98754.81;;;22.91;84.40
41264;BME280;26998;48.714;9.414;2023-06-05T08:40:56;98755.94;;;22.09;88.70
41264;BME280;26998;48.714;9.414;2023-06-05T08:43:25;98758.09;;;22.12;90.76
41264;BME280;26998;48.714;9.414;2023-06-05T08:45:55;98754.88;;;22.80;88.01
41264;BME280;26998;48.714;9.414;2023-06-05T08:48:24;98752.63;;;23.37;84.54
41264;BME280;26998;48.714;9.414;2023-06-05T08:50:52;98756.81;;;23.93;80.32
41264;BME280;26998;48.714;9.414;2023-06-05T08:53:20;98755.09;;;24.26;78.94
41264;BME280;26998;48.714;9.414;2023-06-05T08:55:51;98755.00;;;23.10;82.29
41264;BME280;26998;48.714;9.414;2023-06-05T08:58:20;98752.34;;;23.73;81.02
41264;BME280;26998;48.714;9.414;2023-06-05T09:00:47;98746.28;;;23.47;79.37
41264;BME280;26998;48.714;9.414;2023-06-05T09:03:14;98765.16;;;23.38;78.22
41264;BME280;26998;48.714;9.414;2023-06-05T09:05:40;98753.53;;;23.62;75.04
41264;BME280;26998;48.714;9.414;2023-06-05T09:08:08;98761.44;;;23.92;70.70
41264;BME280;26998;48.714;9.414;2023-06-05T09:10:35;98757.41;;;24.43;69.00
41264;BME280;26998;48.714;9.414;2023-06-05T09:13:03;98748.28;;;24.00;67.41
41264;BME280;26998;48.714;9.414;2023-06-05T09:15:32;98755.75;;;24.42;63.73
41264;BME280;26998;48.714;9.414;2023-06-05T09:18:10;98744.66;;;24.57;63.68
41264;BME280;26998;48.714;9.414;2023-06-05T09:20:41;98754.28;;;23.72;67.65
41264;BME280;26998;48.714;9.414;2023-06-05T09:23:24;98747.78;;;23.92;68.56
41264;BME280;26998;48.714;9.414;2023-06-05T09:25:53;98749.00;;;24.34;64.38
41264;BME280;26998;48.714;9.414;2023-06-05T09:28:20;98744.97;;;24.27;64.99
41264;BME280;26998;48.714;9.414;2023-06-05T09:33:22;98742.00;;;24.52;63.30
41264;BME280;26998;48.714;9.414;2023-06-05T09:38:32;98747.06;;;25.02;58.45
41264;BME280;26998;48.714;9.414;2023-06-05T09:43:33;98740.28;;;26.02;52.48
41264;BME280;26998;48.714;9.414;2023-06-05T09:46:06;98741.97;;;25.85;52.49
41264;BME280;26998;48.714;9.414;2023-06-05T09:48:34;98741.81;;;26.09;50.55
41264;BME280;26998;48.714;9.414;2023-06-05T09:51:11;98737.91;;;25.30;54.81
41264;BME280;26998;48.714;9.414;2023-06-05T09:53:42;98735.56;;;25.05;57.48
41264;BME280;26998;48.714;9.414;2023-06-05T09:56:12;98742.00;;;26.12;51.63
41264;BME280;26998;48.714;9.414;2023-06-05T09:58:43;98740.19;;;25.23;51.43
41264;BME280;26998;48.714;9.414;2023-06-05T10:01:10;98734.94;;;24.89;57.20
41264;BME280;26998;48.714;9.414;2023-06-05T10:03:40;98741.16;;;25.14;53.06
41264;BME280;26998;48.714;9.414;2023-06-05T10:06:09;98731.34;;;25.64;48.94
41264;BME280;26998;48.714;9.414;2023-06-05T10:08:47;98729.41;;;24.94;51.02
41264;BME280;26998;48.714;9.414;2023-06-05T10:11:15;98727.03;;;25.06;49.90
41264;BME280;26998;48.714;9.414;2023-06-05T10:13:43;98724.31;;;24.45;49.48
41264;BME280;26998;48.714;9.414;2023-06-05T10:16:10;98721.03;;;24.85;49.36
41264;BME280;26998;48.714;9.414;2023-06-05T10:18:51;98727.41;;;24.62;49.17
41264;BME280;26998;48.714;9.414;2023-06-05T10:21:18;98727.25;;;25.29;46.49
41264;BME280;26998;48.714;9.414;2023-06-05T10:23:48;98716.19;;;25.86;48.54
41264;BME280;26998;48.714;9.414;2023-06-05T10:32:00;98720.13;;;24.28;48.54
41264;BME280;26998;48.714;9.414;2023-06-05T10:34:39;98720.00;;;23.90;44.69
41264;BME280;26998;48.714;9.414;2023-06-05T10:39:55;98727.44;;;24.57;41.62
41264;BME280;26998;48.714;9.414;2023-06-05T10:42:27;98724.16;;;24.12;42.92
41264;BME280;26998;48.714;9.414;2023-06-05T10:44:55;98717.63;;;24.08;43.87
41264;BME280;26998;48.714;9.414;2023-06-05T10:52:43;98715.38;;;25.20;39.24
41264;BME280;26998;48.714;9.414;2023-06-05T10:55:11;98707.72;;;25.68;38.17
41264;BME280;26998;48.714;9.414;2023-06-05T10:58:10;98706.88;;;26.00;37.16
41264;BME280;26998;48.714;9.414;2023-06-05T11:00:38;98716.53;;;25.51;39.16
41264;BME280;26998;48.714;9.414;2023-06-05T11:03:12;98700.09;;;25.98;37.74
41264;BME280;26998;48.714;9.414;2023-06-05T11:06:11;98704.75;;;25.84;38.01
41264;BME280;26998;48.714;9.414;2023-06-05T11:08:45;98710.56;;;26.37;37.12
41264;BME280;26998;48.714;9.414;2023-06-05T11:11:29;98715.06;;;25.02;38.94
41264;BME280;26998;48.714;9.414;2023-06-05T11:14:20;98714.47;;;24.68;41.36
41264;BME280;26998;48.714;9.414;2023-06-05T11:16:49;98714.06;;;25.17;39.31
41264;BME280;26998;48.714;9.414;2023-06-05T11:24:31;98696.38;;;26.08;36.82
41264;BME280;26998;48.714;9.414;2023-06-05T11:26:57;98698.47;;;26.66;35.87
41264;BME280;26998;48.714;9.414;2023-06-05T11:29:25;98700.03;;;25.38;36.22
41264;BME280;26998;48.714;9.414;2023-06-05T11:31:53;98699.59;;;25.63;37.70
41264;BME280;26998;48.714;9.414;2023-06-05T11:34:24;98699.91;;;25.62;36.11
41264;BME280;26998;48.714;9.414;2023-06-05T11:36:53;98696.06;;;25.63;35.73
41264;BME280;26998;48.714;9.414;2023-06-05T11:39:21;98690.34;;;25.45;35.68
41264;BME280;26998;48.714;9.414;2023-06-05T11:42:10;98700.72;;;25.48;35.18
41264;BME280;26998;48.714;9.414;2023-06-05T11:44:37;98686.63;;;25.55;34.32
41264;BME280;26998;48.714;9.414;2023-06-05T11:47:06;98685.00;;;26.14;34.23
41264;BME280;26998;48.714;9.414;2023-06-05T11:49:33;98685.00;;;26.42;33.54
41264;BME280;26998;48.714;9.414;2023-06-05T11:51:59;98684.94;;;26.83;32.21
41264;BME280;26998;48.714;9.414;2023-06-05T11:54:31;98673.22;;;26.55;31.91
41264;BME280;26998;48.714;9.414;2023-06-05T11:56:59;98680.50;;;26.60;32.01
41264;BME280;26998;48.714;9.414;2023-06-05T11:59:26;98677.19;;;26.85;31.31
41264;BME280;26998;48.714;9.414;2023-06-05T12:01:53;98681.22;;;26.65;31.83
41264;BME280;26998;48.714;9.414;2023-06-05T12:04:20;98677.59;;;26.92;32.75
41264;BME280;26998;48.714;9.414;2023-06-05T12:06:47;98680.88;;;27.03;32.80
41264;BME280;26998;48.714;9.414;2023-06-05T12:09:14;98688.00;;;26.68;31.78
41264;BME280;26998;48.714;9.414;2023-06-05T12:11:42;98680.19;;;26.47;32.13
41264;BME280;26998;48.714;9.414;2023-06-05T12:14:28;98667.56;;;25.83;32.86
41264;BME280;26998;48.714;9.414;2023-06-05T12:16:55;98672.09;;;26.29;32.41
41264;BME280;26998;48.714;9.414;2023-06-05T12:19:25;98657.34;;;26.66;31.98
41264;BME280;26998;48.714;9.414;2023-06-05T12:22:01;98661.84;;;27.43;30.36
41264;BME280;26998;48.714;9.414;2023-06-05T12:24:28;98667.25;;;26.76;30.83
41264;BME280;26998;48.714;9.414;2023-06-05T12:26:59;98653.69;;;26.70;30.49
41264;BME280;26998;48.714;9.414;2023-06-05T12:29:27;98665.88;;;27.46;29.99
41264;BME280;26998;48.714;9.414;2023-06-05T12:31:55;98661.06;;;27.20;29.83
41264;BME280;26998;48.714;9.414;2023-06-05T12:34:41;98656.13;;;26.44;31.42
41264;BME280;26998;48.714;9.414;2023-06-05T12:37:34;98657.47;;;25.64;31.00
41264;BME280;26998;48.714;9.414;2023-06-05T12:40:01;98657.69;;;25.35;32.27
41264;BME280;26998;48.714;9.414;2023-06-05T12:42:35;98644.28;;;24.82;32.56
41264;BME280;26998;48.714;9.414;2023-06-05T12:45:06;98644.78;;;25.68;32.20
41264;BME280;26998;48.714;9.414;2023-06-05T12:47:37;98642.03;;;26.51;31.67
41264;BME280;26998;48.714;9.414;2023-06-05T12:50:05;98642.50;;;26.03;31.72
41264;BME280;26998;48.714;9.414;2023-06-05T12:52:32;98641.28;;;26.09;32.03
41264;BME280;26998;48.714;9.414;2023-06-05T12:55:00;98643.56;;;26.57;30.90
41264;BME280;26998;48.714;9.414;2023-06-05T12:57:27;98638.34;;;26.69;30.92
41264;BME280;26998;48.714;9.414;2023-06-05T12:59:54;98637.44;;;26.74;30.34
41264;BME280;26998;48.714;9.414;2023-06-05T13:02:21;98624.94;;;27.04;30.48
41264;BME280;26998;48.714;9.414;2023-06-05T13:04:48;98638.31;;;27.06;29.27
41264;BME280;26998;48.714;9.414;2023-06-05T13:07:14;98632.69;;;26.66;28.84
41264;BME280;26998;48.714;9.414;2023-06-05T13:09:41;98630.47;;;26.90;29.58
41264;BME280;26998;48.714;9.414;2023-06-05T13:12:10;98627.44;;;26.42;30.45
41264;BME280;26998;48.714;9.414;2023-06-05T13:14:37;98622.78;;;26.29;29.87
41264;BME280;26998;48.714;9.414;2023-06-05T13:17:04;98622.50;;;26.30;29.67
41264;BME280;26998;48.714;9.414;2023-06-05T13:19:31;98624.09;;;26.81;29.97
41264;BME280;26998;48.714;9.414;2023-06-05T13:21:58;98620.25;;;27.27;29.19
41264;BME280;26998;48.714;9.414;2023-06-05T13:24:26;98622.50;;;27.56;29.33
41264;BME280;26998;48.714;9.414;2023-06-05T13:26:52;98617.66;;;27.53;28.84
41264;BME280;26998;48.714;9.414;2023-06-05T13:29:19;98625.13;;;27.61;28.11
41264;BME280;26998;48.714;9.414;2023-06-05T13:31:46;98613.16;;;27.57;28.06
41264;BME280;26998;48.714;9.414;2023-06-05T13:34:13;98612.31;;;27.57;28.76
41264;BME280;26998;48.714;9.414;2023-06-05T13:36:39;98611.81;;;27.46;29.25